Airport ID:KTSP
Update Time (UTC):21 AUG 19 02:40
Wind Speed (Knots):8
Wind Direction (Magnetic):280
Temperature (°C):22
Dew Point (°C):10
Humidity (%):47
Altimeter (inHg):30.09
Density Altitude (Feet):5500
Visibility (Miles):9
Clouds (Hundreds of feet):CLR
Present Weather:NO PRECIPITATION
METAR:METAR KTSP 210240Z AUTO 29008KT 9SM CLR 22/10 A3009 RMK AO2

The data displayed is for advisory purposes only and is not to be used for flight planning or operations.

This page is not automatically refreshed. Reload the page to see current data.